Forside
METAR-TAF:

METAR-TAF

Lufthavne :

Jonesboro, Arkansas, USA

Breddekreds: 35-50-14N, længdekreds: 090-38-35W, højde: 79 m

Aktuelle vejr

Denne rapport blev lavet for 22 minutter siden, kl. 15:53 UTC
Vind 3 kt fra varierende retninger
Temperatur 16°C
Fugtighed 63%
Tryk 1025 hPa
Sigt: 16.1 km
skyfri

METAR: KJBR 231553Z AUTO VRB03KT 10SM CLR 16/09 A3027 RMK AO2 SLP248 T01610094

Tid: 11:15 (16:15 UTC)

Vejrudsigter

Denne rapport blev lavet for 4 timer og 55 minutter siden, kl. 11:20 UTC
Foreløbig gælder fra 23 på 12 UTC til 24 på 12 UTC
Vind kt fra nord
Sigt: 10 km
Brudte skyer i en højde af 25000 ft
Fra 23 på 1800 UTC
Vind 7 kt fra østnordøst
Sigt: 10 km
Brudte skyer i en højde af 25000 ft
Fra 24 på 0000 UTC
Vind 4 kt fra nordnordøst
Sigt: 10 km
skyfri

TAF: KJBR 231120Z 2312/2412 00000KT P6SM BKN250 FM231800 06007KT P6SM BKN250 FM240000 03004KT P6SM SKC

Vejrobservationer og prognoser fra mere end 4000 lufthavne (METAR og TAF).

De gule og røde prikker repræsenterer de meteorologiske stationer.

Flyt musen over at se navnet på stationen.

Så klik over at se vejr observationer og prognoser.

At skifte det kort: Klik på de grønne knapper med et sort kors for at zoome ind; på den grønne knap med en bindestreg for at zoome ud; eller på de grønne pile for tilstødende kort.


METAR-TAF: